Time;durP1;ratioP1;P1;durP2;ratioP2;P2;SDS_P1;SDS_P2;PMS_P1;PMS_P2;Temp;Humidity;BMP_temperature;BMP_pressure;BME280_temperature;BME280_humidity;BME280_pressure;Samples;Min_cycle;Max_cycle;Signal;HPM_P1;HPM_P2
2022/06/01 00:01:34;;;;;;;12.93;6.53;;;11.70;99.90;;;;;;5025807;28;20219;-88
2022/06/01 00:04:00;;;;;;;8.07;5.00;;;11.80;99.90;;;;;;5008975;28;20225;-87
2022/06/01 00:06:26;;;;;;;9.73;6.53;;;11.70;99.90;;;;;;5008991;28;20218;-86
2022/06/01 00:08:52;;;;;;;6.90;6.03;;;11.70;99.90;;;;;;5008575;28;20237;-86
2022/06/01 00:11:18;;;;;;;9.70;6.40;;;11.80;99.90;;;;;;5009749;28;20190;-86
2022/06/01 00:13:45;;;;;;;7.00;6.30;;;11.80;99.90;;;;;;5025483;28;20824;-87
2022/06/01 00:16:11;;;;;;;10.10;7.07;;;11.70;99.90;;;;;;5025896;28;20222;-86
2022/06/01 00:18:37;;;;;;;7.93;6.93;;;11.70;99.90;;;;;;5026445;28;20381;-85
2022/06/01 00:21:05;;;;;;;9.40;6.83;;;11.70;99.90;;;;;;5025289;28;20241;-86
2022/06/01 00:23:30;;;;;;;10.67;5.83;;;11.80;99.90;;;;;;5026395;28;20198;-86
2022/06/01 00:25:58;;;;;;;9.90;6.33;;;11.70;99.90;;;;;;5025328;28;20261;-84
2022/06/01 00:28:24;;;;;;;10.03;6.83;;;11.80;99.90;;;;;;5009163;28;20257;-86
2022/06/01 00:30:50;;;;;;;8.83;6.90;;;11.80;99.90;;;;;;5025705;28;20214;-84
2022/06/01 00:33:16;;;;;;;10.53;5.67;;;11.70;99.90;;;;;;5010331;28;20338;-84
2022/06/01 00:35:42;;;;;;;8.10;6.07;;;11.70;99.90;;;;;;5023501;28;20190;-86
2022/06/01 00:38:09;;;;;;;10.83;6.40;;;11.70;99.90;;;;;;5006053;28;20202;-86
2022/06/01 00:40:34;;;;;;;7.73;6.73;;;11.70;99.90;;;;;;5005009;28;20262;-86
2022/06/01 00:43:16;;;;;;;8.50;7.07;;;11.70;99.90;;;;;;5005656;28;20647;-86
2022/06/01 00:45:41;;;;;;;9.10;7.20;;;11.80;99.90;;;;;;5005132;28;20219;-87
2022/06/01 00:48:07;;;;;;;10.13;7.23;;;11.70;99.90;;;;;;4973137;28;21055;-85
2022/06/01 00:50:37;;;;;;;7.03;5.80;;;11.80;99.90;;;;;;4972747;28;20206;-86
2022/06/01 00:53:07;;;;;;;8.03;6.80;;;11.80;99.90;;;;;;5006600;28;20223;-86
2022/06/01 00:55:57;;;;;;;11.87;7.33;;;11.80;99.90;;;;;;5004972;28;20223;-85
2022/06/01 00:58:27;;;;;;;11.43;6.73;;;11.80;99.90;;;;;;5005183;28;20310;-84
2022/06/01 01:00:54;;;;;;;9.83;7.00;;;11.70;99.90;;;;;;5005207;28;20274;-85
2022/06/01 01:03:23;;;;;;;8.50;5.47;;;11.70;99.90;;;;;;5005717;28;20857;-84
2022/06/01 01:05:58;;;;;;;8.60;7.53;;;11.70;99.90;;;;;;5005946;28;20198;-86
2022/06/01 01:08:24;;;;;;;10.67;6.57;;;11.70;99.90;;;;;;5005894;28;20546;-85
2022/06/01 01:10:50;;;;;;;9.00;6.57;;;11.70;99.90;;;;;;5005180;28;20700;-86
2022/06/01 01:13:16;;;;;;;9.60;7.30;;;11.70;99.90;;;;;;5005409;28;20231;-85
2022/06/01 01:15:58;;;;;;;10.13;7.60;;;11.70;99.90;;;;;;4972570;28;20256;-85
2022/06/01 01:18:38;;;;;;;12.90;7.63;;;11.70;99.90;;;;;;5004816;28;20319;-86
2022/06/01 01:21:18;;;;;;;11.10;7.77;;;11.70;99.90;;;;;;5005418;28;20235;-85
2022/06/01 01:24:03;;;;;;;10.57;7.30;;;11.70;99.90;;;;;;5008550;28;20186;-87
2022/06/01 01:26:30;;;;;;;7.47;6.17;;;11.70;99.90;;;;;;5009311;28;20266;-85
2022/06/01 01:28:56;;;;;;;11.47;7.40;;;11.60;99.90;;;;;;5007707;28;20227;-84
2022/06/01 01:31:24;;;;;;;10.47;4.97;;;11.50;99.90;;;;;;4975692;28;21129;-87
2022/06/01 01:33:52;;;;;;;8.27;6.70;;;11.50;99.90;;;;;;5007923;28;20289;-85
2022/06/01 01:36:23;;;;;;;9.03;6.50;;;11.50;99.90;;;;;;4992528;28;20696;-84
2022/06/01 01:39:02;;;;;;;8.80;5.90;;;11.50;99.90;;;;;;5008399;28;20189;-85
2022/06/01 01:41:42;;;;;;;10.63;7.50;;;11.60;99.90;;;;;;5009421;28;20186;-88
2022/06/01 01:44:09;;;;;;;7.77;6.67;;;11.70;99.90;;;;;;5028360;28;20226;-88
2022/06/01 01:46:35;;;;;;;7.93;4.87;;;11.70;99.90;;;;;;5028320;28;20691;-84
2022/06/01 01:49:04;;;;;;;11.87;6.27;;;11.70;99.90;;;;;;5029372;28;20222;-85
2022/06/01 01:51:32;;;;;;;12.37;6.13;;;11.70;99.90;;;;;;5011539;28;20229;-85
2022/06/01 01:54:02;;;;;;;6.77;5.37;;;11.70;99.90;;;;;;5028034;28;21012;-87
2022/06/01 01:57:02;;;;;;;10.90;5.87;;;11.70;99.90;;;;;;5028604;28;20301;-86
2022/06/01 02:00:00;;;;;;;7.23;5.57;;;11.70;99.90;;;;;;5015022;28;20253;-85
2022/06/01 02:02:52;;;;;;;5.27;4.73;;;11.60;99.90;;;;;;5027939;28;20253;-85
2022/06/01 02:08:46;;;;;;;7.00;4.37;;;11.60;99.90;;;;;;5028557;28;20250;-88
2022/06/01 02:14:47;;;;;;;5.17;3.67;;;11.40;99.90;;;;;;5029396;28;20223;-85
2022/06/01 02:17:39;;;;;;;6.27;4.40;;;11.30;99.90;;;;;;5028400;28;20253;-85
2022/06/01 02:20:35;;;;;;;6.70;4.87;;;11.20;99.90;;;;;;5028429;28;20213;-84
2022/06/01 02:23:02;;;;;;;4.07;3.67;;;11.00;99.90;;;;;;5028565;28;20206;-84
2022/06/01 02:25:29;;;;;;;7.47;4.70;;;10.90;99.90;;;;;;5028515;28;20301;-86
2022/06/01 02:27:57;;;;;;;5.07;4.37;;;10.80;99.90;;;;;;5027935;28;20222;-84
2022/06/01 02:30:37;;;;;;;6.67;4.07;;;10.80;99.90;;;;;;5027541;28;20268;-87
2022/06/01 02:33:05;;;;;;;7.17;4.40;;;10.80;99.90;;;;;;5026646;28;20238;-86
2022/06/01 02:35:36;;;;;;;4.27;3.73;;;10.80;99.90;;;;;;5029014;28;20194;-87
2022/06/01 02:38:10;;;;;;;4.83;4.00;;;10.80;99.90;;;;;;5027834;28;20325;-85
2022/06/01 02:40:37;;;;;;;9.47;4.73;;;10.80;99.90;;;;;;5027867;28;20225;-86
2022/06/01 02:43:03;;;;;;;5.00;3.50;;;10.70;99.90;;;;;;5028177;28;20245;-86
2022/06/01 02:45:29;;;;;;;7.13;4.87;;;10.70;99.90;;;;;;5026894;28;20215;-84
2022/06/01 02:47:59;;;;;;;5.77;4.10;;;10.60;99.90;;;;;;5027988;28;20237;-86
2022/06/01 02:50:26;;;;;;;8.20;6.07;;;10.60;99.90;;;;;;5027143;28;20662;-84
2022/06/01 02:52:53;;;;;;;6.33;4.63;;;10.50;99.90;;;;;;5027738;28;20222;-86
2022/06/01 02:55:21;;;;;;;7.20;5.10;;;10.50;99.90;;;;;;5028290;28;20246;-85
2022/06/01 02:57:48;;;;;;;7.47;5.60;;;10.50;99.90;;;;;;5026457;28;20230;-84
2022/06/01 03:00:18;;;;;;;9.13;6.73;;;10.50;99.90;;;;;;5010682;28;20563;-86
2022/06/01 03:02:51;;;;;;;9.40;7.40;;;10.60;99.90;;;;;;5027435;28;20294;-86
2022/06/01 03:05:19;;;;;;;7.17;5.10;;;10.60;99.90;;;;;;5027158;28;20218;-87
2022/06/01 03:07:45;;;;;;;9.20;6.23;;;10.70;99.90;;;;;;5026605;28;20322;-85
2022/06/01 03:10:11;;;;;;;9.87;6.17;;;10.70;99.90;;;;;;5026642;28;20321;-88
2022/06/01 03:12:38;;;;;;;8.50;6.60;;;10.70;99.90;;;;;;5026707;28;20616;-86
2022/06/01 03:15:06;;;;;;;11.33;7.30;;;10.70;99.90;;;;;;5026859;28;20246;-85
2022/06/01 03:17:32;;;;;;;11.50;6.63;;;10.70;99.90;;;;;;5027247;28;20190;-85
2022/06/01 03:19:59;;;;;;;10.93;6.33;;;10.70;99.90;;;;;;5010419;28;20253;-87
2022/06/01 03:22:25;;;;;;;9.07;6.77;;;10.80;99.90;;;;;;5027216;28;20244;-85
2022/06/01 03:24:51;;;;;;;10.83;8.03;;;10.80;99.90;;;;;;5026373;28;20307;-86
2022/06/01 03:27:17;;;;;;;11.53;7.80;;;10.90;99.90;;;;;;5026179;28;20773;-88
2022/06/01 03:29:44;;;;;;;6.57;5.77;;;10.80;99.90;;;;;;5010069;28;20194;-88
2022/06/01 03:32:09;;;;;;;10.13;6.47;;;10.80;99.90;;;;;;5010263;28;20191;-89
2022/06/01 03:34:35;;;;;;;7.77;5.60;;;10.90;99.90;;;;;;5024086;28;20307;-89
2022/06/01 03:37:02;;;;;;;7.90;4.90;;;11.00;99.90;;;;;;5009148;28;20221;-87
2022/06/01 03:39:28;;;;;;;13.90;6.90;;;11.00;99.90;;;;;;5026169;28;20222;-86
2022/06/01 03:41:54;;;;;;;8.93;5.20;;;11.10;99.90;;;;;;5010145;28;20264;-87
2022/06/01 03:47:09;;;;;;;4.57;3.73;;;11.20;99.90;;;;;;5006496;28;20577;-86
2022/06/01 03:49:35;;;;;;;5.27;4.13;;;11.10;99.90;;;;;;5007413;28;20615;-86
2022/06/01 03:52:02;;;;;;;5.57;4.37;;;11.20;99.90;;;;;;5006401;28;20293;-86
2022/06/01 03:54:28;;;;;;;6.57;5.27;;;11.40;99.90;;;;;;5007424;28;20231;-87
2022/06/01 03:56:54;;;;;;;7.50;5.70;;;11.50;99.90;;;;;;5006330;28;20219;-86
2022/06/01 03:59:20;;;;;;;10.00;6.93;;;11.60;99.90;;;;;;5007494;28;20195;-87
2022/06/01 04:01:46;;;;;;;6.90;5.33;;;11.70;99.90;;;;;;4991246;28;20246;-90
2022/06/01 04:04:11;;;;;;;6.83;5.40;;;11.90;99.90;;;;;;4993133;28;20253;-88
2022/06/01 04:06:37;;;;;;;5.97;4.47;;;12.00;99.90;;;;;;4992621;28;20222;-88
2022/06/01 04:09:03;;;;;;;7.37;4.77;;;11.80;99.90;;;;;;5026688;28;20218;-87
2022/06/01 04:11:29;;;;;;;7.83;6.30;;;11.60;99.90;;;;;;5025549;28;20201;-88
2022/06/01 04:13:55;;;;;;;10.83;6.97;;;11.50;99.90;;;;;;5008410;28;20235;-87
2022/06/01 04:16:20;;;;;;;8.37;6.10;;;11.60;99.90;;;;;;5008896;28;20628;-86
2022/06/01 04:18:47;;;;;;;8.87;6.67;;;11.60;99.90;;;;;;5008848;28;20229;-87
2022/06/01 04:21:15;;;;;;;9.70;4.90;;;11.60;99.90;;;;;;5024785;28;21146;-87
2022/06/01 04:23:40;;;;;;;8.63;5.83;;;11.70;99.90;;;;;;5024610;28;20222;-85
2022/06/01 04:26:06;;;;;;;7.30;5.30;;;11.70;99.90;;;;;;5009022;28;20631;-88
2022/06/01 04:28:32;;;;;;;7.00;5.63;;;11.70;99.90;;;;;;5026072;28;20244;-85
2022/06/01 04:30:59;;;;;;;8.47;5.93;;;11.70;99.90;;;;;;5025950;28;20226;-88
2022/06/01 04:33:26;;;;;;;7.60;4.60;;;11.80;99.90;;;;;;5008157;28;20242;-88
2022/06/01 04:35:52;;;;;;;7.37;4.53;;;11.80;99.90;;;;;;5024759;28;20237;-87
2022/06/01 04:38:18;;;;;;;9.13;6.80;;;11.80;99.90;;;;;;5008007;28;20194;-89
2022/06/01 04:40:51;;;;;;;11.23;7.13;;;11.90;99.90;;;;;;5006661;28;20218;-87
2022/06/01 04:43:20;;;;;;;8.03;5.63;;;11.90;99.90;;;;;;5007024;28;20218;-88
2022/06/01 04:45:49;;;;;;;11.90;5.37;;;11.80;99.90;;;;;;5023863;28;20217;-88
2022/06/01 04:48:14;;;;;;;9.40;6.03;;;11.80;99.90;;;;;;5022725;28;20226;-89
2022/06/01 04:50:42;;;;;;;9.07;5.93;;;11.90;99.90;;;;;;5023116;28;20190;-88
2022/06/01 04:53:12;;;;;;;8.17;5.37;;;11.80;99.90;;;;;;5007469;28;20214;-90
2022/06/01 04:55:39;;;;;;;4.70;4.23;;;11.80;99.90;;;;;;5024949;28;20574;-88
2022/06/01 04:58:05;;;;;;;5.17;4.57;;;11.80;99.90;;;;;;5027277;28;20218;-90
2022/06/01 05:00:33;;;;;;;5.50;3.97;;;11.60;99.90;;;;;;5026991;28;20263;-90
2022/06/01 05:02:59;;;;;;;4.60;2.80;;;11.50;99.90;;;;;;5010308;28;20218;-90
2022/06/01 05:05:25;;;;;;;3.10;2.53;;;11.40;99.90;;;;;;5027807;28;20217;-89
2022/06/01 05:07:51;;;;;;;4.37;2.93;;;11.40;99.90;;;;;;5027513;28;20686;-88
2022/06/01 05:10:17;;;;;;;4.03;2.90;;;11.40;99.90;;;;;;4994440;28;20750;-90
2022/06/01 05:12:42;;;;;;;4.13;2.70;;;11.50;99.90;;;;;;5010333;28;20511;-88
2022/06/01 05:15:09;;;;;;;3.23;2.83;;;11.50;99.90;;;;;;5026660;28;20222;-90
2022/06/01 05:17:34;;;;;;;3.77;3.43;;;11.50;99.90;;;;;;5027298;28;20220;-88
2022/06/01 05:20:02;;;;;;;6.23;2.77;;;11.50;99.90;;;;;;5027370;28;20198;-88
2022/06/01 05:22:28;;;;;;;3.93;3.33;;;11.60;99.90;;;;;;5027630;28;20218;-88
2022/06/01 05:24:54;;;;;;;3.83;3.17;;;11.70;99.90;;;;;;5026383;28;20710;-90
2022/06/01 05:27:20;;;;;;;4.47;3.70;;;11.80;99.90;;;;;;5026719;28;20504;-87
2022/06/01 05:29:46;;;;;;;4.00;3.30;;;11.90;99.90;;;;;;5025523;28;20209;-89
2022/06/01 05:32:12;;;;;;;9.40;4.27;;;11.90;99.90;;;;;;5010591;28;20194;-89
2022/06/01 05:34:38;;;;;;;4.57;3.77;;;12.00;99.90;;;;;;5026672;28;20974;-89
2022/06/01 05:37:04;;;;;;;7.63;3.70;;;12.00;99.90;;;;;;5026230;28;20233;-89
2022/06/01 05:39:29;;;;;;;8.33;3.53;;;12.10;99.90;;;;;;4992864;28;20249;-88
2022/06/01 05:41:55;;;;;;;5.23;3.50;;;12.20;99.90;;;;;;5009304;28;20217;-89
2022/06/01 05:44:21;;;;;;;8.87;4.07;;;12.20;99.90;;;;;;5009711;28;20640;-88
2022/06/01 05:46:53;;;;;;;3.80;3.40;;;12.30;99.90;;;;;;4992893;28;20238;-88
2022/06/01 05:49:19;;;;;;;7.80;3.27;;;12.40;99.90;;;;;;5042058;28;20253;-88
2022/06/01 05:51:45;;;;;;;5.40;2.73;;;12.50;99.90;;;;;;5026157;28;20210;-88
2022/06/01 05:54:11;;;;;;;3.80;3.40;;;12.50;99.90;;;;;;5026322;28;20695;-88
2022/06/01 05:56:37;;;;;;;2.20;2.07;;;12.60;99.90;;;;;;4992734;28;20186;-88
2022/06/01 05:59:03;;;;;;;3.27;2.33;;;12.70;99.90;;;;;;5026543;28;20193;-87
2022/06/01 06:01:28;;;;;;;2.93;2.53;;;12.60;99.90;;;;;;5009016;28;20218;-88
2022/06/01 06:03:54;;;;;;;4.23;2.43;;;12.70;99.90;;;;;;5009399;28;20222;-87
2022/06/01 06:06:22;;;;;;;5.40;2.23;;;12.70;99.90;;;;;;5025439;28;20768;-87
2022/06/01 06:09:00;;;;;;;2.37;1.83;;;12.70;99.90;;;;;;5008072;28;20187;-87
2022/06/01 06:11:29;;;;;;;1.40;1.30;;;12.80;99.90;;;;;;5025587;28;20710;-91
2022/06/01 06:13:56;;;;;;;4.60;1.60;;;12.70;99.90;;;;;;5024021;28;20337;-85
2022/06/01 06:16:22;;;;;;;1.43;1.30;;;12.60;99.90;;;;;;5025246;28;20230;-87
2022/06/01 06:18:48;;;;;;;6.37;1.70;;;12.60;99.90;;;;;;5024234;28;20269;-84
2022/06/01 06:21:14;;;;;;;2.87;1.03;;;12.70;99.90;;;;;;5007879;28;20233;-84
2022/06/01 06:23:40;;;;;;;3.37;1.93;;;12.90;99.90;;;;;;5007907;28;20190;-84
2022/06/01 06:26:06;;;;;;;1.20;1.10;;;13.00;99.90;;;;;;5007512;28;20185;-84
2022/06/01 06:28:32;;;;;;;1.63;0.97;;;13.10;99.90;;;;;;5025361;28;20331;-85
2022/06/01 06:30:58;;;;;;;2.87;1.50;;;13.30;99.90;;;;;;5020336;28;20258;-82
2022/06/01 06:33:24;;;;;;;1.67;1.00;;;13.70;99.90;;;;;;5010853;28;20285;-84
2022/06/01 06:36:01;;;;;;;1.90;1.60;;;14.00;99.90;;;;;;5023305;28;20200;-83
2022/06/01 06:38:28;;;;;;;2.33;1.50;;;14.20;99.90;;;;;;5025531;28;20179;-88
2022/06/01 06:40:56;;;;;;;1.60;1.50;;;14.40;99.90;;;;;;5025437;28;20206;-86
2022/06/01 06:43:24;;;;;;;2.33;1.97;;;14.30;99.90;;;;;;5024746;28;20250;-88
2022/06/01 06:46:10;;;;;;;1.97;1.73;;;14.30;99.90;;;;;;5024310;28;20241;-89
2022/06/01 06:48:37;;;;;;;2.90;2.30;;;14.30;99.90;;;;;;5025142;28;20601;-89
2022/06/01 06:51:03;;;;;;;4.77;3.07;;;14.50;99.90;;;;;;5025490;28;20218;-87
2022/06/01 06:53:29;;;;;;;6.07;2.60;;;15.70;99.90;;;;;;5025287;28;20325;-87
2022/06/01 06:55:56;;;;;;;3.63;1.90;;;18.00;99.90;;;;;;5007839;28;20551;-89
2022/06/01 06:58:22;;;;;;;2.00;1.73;;;20.10;99.90;;;;;;5024441;28;20341;-88
2022/06/01 07:00:48;;;;;;;4.93;1.97;;;22.40;99.90;;;;;;5024654;28;20254;-88
2022/06/01 07:03:15;;;;;;;2.20;2.03;;;20.50;99.90;;;;;;5024612;28;20314;-88
2022/06/01 07:08:26;;;;;;;3.10;2.80;;;18.70;99.90;;;;;;5026621;28;20204;-89
2022/06/01 07:10:53;;;;;;;3.60;2.50;;;17.80;99.90;;;;;;5024419;28;20214;-90
2022/06/01 07:13:19;;;;;;;2.97;2.53;;;17.50;99.90;;;;;;5008220;28;20241;-89
2022/06/01 07:15:44;;;;;;;2.67;2.47;;;18.80;99.90;;;;;;5008120;28;20222;-89
2022/06/01 07:18:10;;;;;;;3.03;2.73;;;20.20;99.90;;;;;;5023960;28;20280;-91
2022/06/01 07:20:36;;;;;;;2.93;2.63;;;21.50;99.90;;;;;;5022934;28;20193;-88
2022/06/01 07:23:02;;;;;;;3.20;2.90;;;22.60;99.90;;;;;;5008669;28;20198;-89
2022/06/01 07:25:28;;;;;;;3.00;2.60;;;24.60;99.90;;;;;;5024992;28;20214;-89
2022/06/01 07:27:55;;;;;;;2.95;2.65;;;24.30;99.90;;;;;;5024589;28;20233;-90
2022/06/01 07:30:22;;;;;;;2.60;2.35;;;22.80;99.90;;;;;;5011248;28;20231;-87
2022/06/01 07:32:48;;;;;;;3.83;3.15;;;22.50;99.90;;;;;;5023766;28;20240;-89
2022/06/01 07:35:16;;;;;;;4.95;2.60;;;22.20;99.90;;;;;;5008140;28;20193;-88
2022/06/01 07:43:13;;;;;;;2.55;2.30;;;23.80;99.90;;;;;;5004578;28;20842;-88
2022/06/01 07:45:43;;;;;;;2.70;2.50;;;23.10;99.90;;;;;;5005826;28;20223;-90
2022/06/01 07:48:10;;;;;;;2.50;2.30;;;23.40;99.90;;;;;;5005250;28;20254;-88
2022/06/01 07:50:37;;;;;;;3.15;2.85;;;23.90;99.90;;;;;;5004413;28;20229;-87
2022/06/01 07:53:06;;;;;;;3.03;2.72;;;23.40;99.90;;;;;;5004820;28;20211;-88
2022/06/01 07:55:32;;;;;;;2.83;2.38;;;23.40;99.90;;;;;;5004362;28;20306;-88
2022/06/01 07:57:58;;;;;;;2.67;2.47;;;21.60;99.90;;;;;;5004324;28;20586;-90
2022/06/01 08:00:24;;;;;;;2.17;2.08;;;20.20;99.90;;;;;;4971717;28;20227;-88
2022/06/01 08:02:50;;;;;;;3.80;2.47;;;19.20;99.90;;;;;;4987355;28;20179;-88
2022/06/01 08:05:19;;;;;;;3.95;2.15;;;19.20;99.90;;;;;;4987992;28;20187;-88
2022/06/01 08:07:46;;;;;;;2.73;2.53;;;19.50;99.90;;;;;;5004130;28;20254;-87
2022/06/01 08:10:16;;;;;;;2.57;2.37;;;19.60;99.90;;;;;;5003792;28;20215;-89
2022/06/01 08:15:26;;;;;;;2.10;1.90;;;19.10;99.90;;;;;;5003931;28;20223;-88
2022/06/01 08:17:55;;;;;;;1.60;1.50;;;17.90;99.90;;;;;;4987432;28;20594;-87
2022/06/01 08:20:21;;;;;;;2.90;2.60;;;17.30;99.90;;;;;;5005014;28;20214;-88
2022/06/01 08:22:47;;;;;;;3.67;2.27;;;17.40;99.90;;;;;;5003737;28;20219;-88
2022/06/01 08:25:18;;;;;;;5.80;2.47;;;17.00;99.90;;;;;;5003830;28;20266;-87
2022/06/01 08:27:45;;;;;;;2.53;2.33;;;17.00;99.90;;;;;;5004077;28;20289;-86
2022/06/01 08:30:13;;;;;;;1.87;1.70;;;16.90;99.90;;;;;;5002712;28;20270;-89
2022/06/01 08:32:39;;;;;;;2.50;1.87;;;16.90;99.90;;;;;;5004515;28;20341;-87
2022/06/01 08:35:06;;;;;;;1.77;1.33;;;16.70;99.90;;;;;;5004413;28;20551;-88
2022/06/01 08:37:32;;;;;;;2.57;1.43;;;16.60;99.90;;;;;;5007640;28;20230;-88
2022/06/01 08:39:58;;;;;;;1.60;1.50;;;16.70;99.90;;;;;;4986860;28;20238;-89
2022/06/01 08:42:26;;;;;;;1.30;1.20;;;16.60;99.90;;;;;;5004082;28;20230;-88
2022/06/01 08:44:54;;;;;;;1.80;1.20;;;16.00;99.90;;;;;;5003231;28;20198;-87
2022/06/01 08:47:20;;;;;;;1.10;1.00;;;16.20;99.90;;;;;;5003618;28;20354;-87
2022/06/01 08:49:46;;;;;;;1.50;1.40;;;16.10;99.90;;;;;;5003215;28;20743;-90
2022/06/01 08:52:12;;;;;;;1.90;1.60;;;15.90;99.90;;;;;;4987440;28;20625;-88
2022/06/01 08:54:39;;;;;;;1.53;1.30;;;15.60;99.90;;;;;;5003466;28;20277;-87
2022/06/01 08:57:11;;;;;;;2.97;1.77;;;15.80;99.90;;;;;;5003154;28;20644;-88
2022/06/01 09:00:01;;;;;;;2.20;1.47;;;16.30;99.90;;;;;;5003005;28;20209;-87
2022/06/01 09:02:55;;;;;;;2.23;1.87;;;16.30;99.90;;;;;;5003279;28;20187;-87
2022/06/01 09:05:40;;;;;;;2.23;1.60;;;16.00;99.90;;;;;;5003547;28;20223;-86
2022/06/01 09:08:10;;;;;;;3.10;2.07;;;16.30;99.90;;;;;;5002426;28;20223;-88
2022/06/01 09:10:39;;;;;;;2.70;1.80;;;17.70;99.90;;;;;;5002952;28;20242;-87
2022/06/01 09:13:14;;;;;;;3.67;2.10;;;18.90;99.90;;;;;;5002805;28;20231;-87
2022/06/01 09:15:51;;;;;;;1.97;1.80;;;18.90;99.90;;;;;;5002985;28;20223;-87
2022/06/01 09:18:23;;;;;;;1.70;1.60;;;18.70;99.90;;;;;;5002662;28;20226;-90
2022/06/01 09:23:33;;;;;;;1.60;1.50;;;20.10;99.90;;;;;;4989801;28;20195;-86
2022/06/01 09:25:59;;;;;;;1.43;1.33;;;21.70;99.90;;;;;;4986714;28;20195;-90
2022/06/01 09:28:27;;;;;;;1.60;1.33;;;23.00;99.90;;;;;;4987307;28;20223;-88
2022/06/01 09:31:32;;;;;;;1.33;1.23;;;22.50;99.90;;;;;;5002941;28;20243;-88
2022/06/01 09:34:36;;;;;;;1.50;1.13;;;21.20;99.90;;;;;;5002363;28;20238;-88
2022/06/01 09:37:04;;;;;;;1.03;1.00;;;20.20;99.90;;;;;;4924034;29;20250;-90
2022/06/01 09:39:30;;;;;;;0.90;0.87;;;19.30;99.90;;;;;;4986149;28;20695;-87
2022/06/01 09:42:25;;;;;;;2.43;0.93;;;18.50;99.90;;;;;;5003107;28;20220;-88
2022/06/01 09:44:54;;;;;;;1.87;0.90;;;18.50;99.90;;;;;;5007192;28;20192;-91
2022/06/01 09:47:40;;;;;;;3.13;1.20;;;19.40;99.90;;;;;;5007582;28;20274;-88
2022/06/01 09:50:27;;;;;;;1.00;0.90;;;19.80;99.90;;;;;;5006701;28;20211;-87
2022/06/01 09:53:13;;;;;;;1.73;1.23;;;19.00;99.90;;;;;;5006090;28;20215;-86
2022/06/01 09:56:00;;;;;;;1.10;1.00;;;18.80;99.90;;;;;;5005951;28;20261;-89
2022/06/01 10:07:06;;;;;;;0.93;0.90;;;18.50;99.90;;;;;;5007079;28;20230;-89
2022/06/01 10:09:34;;;;;;;6.77;1.37;;;17.60;99.90;;;;;;5014090;28;20238;-87
2022/06/01 10:12:28;;;;;;;1.87;1.10;;;17.80;99.90;;;;;;5025396;28;20238;-89
2022/06/01 10:14:55;;;;;;;0.77;0.77;;;19.40;99.90;;;;;;5041480;28;20237;-89
2022/06/01 10:17:35;;;;;;;1.20;0.90;;;20.70;99.90;;;;;;5025734;28;20260;-88
2022/06/01 10:20:49;;;;;;;0.87;0.87;;;20.70;99.90;;;;;;5025532;28;20211;-89
2022/06/01 10:23:35;;;;;;;0.87;0.87;;;21.20;99.90;;;;;;5013055;28;20305;-90
2022/06/01 10:26:08;;;;;;;1.40;1.30;;;22.90;99.90;;;;;;5025463;28;20210;-91
2022/06/01 10:28:40;;;;;;;1.13;1.03;;;23.50;99.90;;;;;;5026417;28;20492;-89
2022/06/01 10:31:34;;;;;;;1.73;1.50;;;23.90;99.90;;;;;;5025285;28;20229;-87
2022/06/01 10:34:09;;;;;;;1.90;1.10;;;23.10;99.90;;;;;;5010482;28;20246;-88
2022/06/01 10:36:53;;;;;;;1.50;1.40;;;22.90;99.90;;;;;;5026564;28;20269;-88
2022/06/01 10:39:35;;;;;;;1.40;1.30;;;23.50;99.90;;;;;;5024890;28;20574;-89
2022/06/01 10:42:22;;;;;;;2.78;1.50;;;22.00;99.90;;;;;;5025258;28;20218;-88
2022/06/01 10:45:03;;;;;;;1.40;1.30;;;22.40;99.90;;;;;;5025422;28;20236;-88
2022/06/01 10:47:46;;;;;;;1.70;1.60;;;21.70;99.90;;;;;;5026037;28;20186;-88
2022/06/01 10:50:19;;;;;;;4.00;2.30;;;22.20;99.90;;;;;;5005609;28;20219;-88
2022/06/01 10:52:59;;;;;;;2.00;1.80;;;22.20;99.90;;;;;;5028391;28;20706;-89
2022/06/01 10:55:34;;;;;;;2.10;1.90;;;22.70;99.90;;;;;;5024874;28;20214;-90
2022/06/01 10:58:01;;;;;;;1.58;1.48;;;23.90;99.90;;;;;;5025018;28;20513;-89
2022/06/01 11:00:33;;;;;;;1.85;1.50;;;22.20;99.90;;;;;;4992025;28;20218;-89
2022/06/01 11:03:30;;;;;;;1.58;1.48;;;21.00;99.90;;;;;;5025938;28;20575;-90
2022/06/01 11:06:21;;;;;;;1.55;1.25;;;20.10;99.90;;;;;;5024164;28;20222;-88
2022/06/01 11:09:05;;;;;;;1.27;1.13;;;21.40;99.90;;;;;;5024037;28;20285;-91
2022/06/01 11:11:58;;;;;;;1.20;1.10;;;20.50;99.90;;;;;;5042493;28;20221;-87
2022/06/01 11:14:27;;;;;;;1.38;1.27;;;19.80;99.90;;;;;;5024202;28;20230;-90
2022/06/01 11:16:55;;;;;;;1.93;1.83;;;19.10;99.90;;;;;;5024909;28;20218;-88
2022/06/01 11:19:44;;;;;;;1.23;1.13;;;20.00;99.90;;;;;;5026658;28;20216;-90
2022/06/01 11:22:24;;;;;;;2.37;1.70;;;20.30;99.90;;;;;;5035576;28;20215;-89
2022/06/01 11:25:32;;;;;;;2.57;1.57;;;19.00;99.90;;;;;;5027770;28;20478;-88
2022/06/01 11:28:28;;;;;;;1.80;1.60;;;19.00;99.90;;;;;;5023852;28;20223;-89
2022/06/01 11:31:21;;;;;;;2.00;1.80;;;19.30;99.90;;;;;;5023950;28;20816;-88
2022/06/01 11:34:03;;;;;;;2.07;1.87;;;19.60;99.90;;;;;;5023519;28;20584;-87
2022/06/01 11:36:52;;;;;;;2.17;1.97;;;19.50;99.90;;;;;;5023851;28;20210;-88
2022/06/01 11:39:34;;;;;;;2.00;1.50;;;19.80;99.90;;;;;;5024230;28;20230;-87
2022/06/01 11:42:09;;;;;;;2.07;1.87;;;19.40;99.90;;;;;;5040639;28;20214;-88
2022/06/01 11:44:38;;;;;;;2.03;1.60;;;19.10;99.90;;;;;;5023622;28;20178;-87
2022/06/01 11:47:08;;;;;;;1.63;1.50;;;19.10;99.90;;;;;;5025396;28;20233;-85
2022/06/01 11:49:38;;;;;;;1.47;1.13;;;18.60;99.90;;;;;;5023267;28;20246;-86
2022/06/01 11:52:57;;;;;;;1.43;1.30;;;17.80;99.90;;;;;;5024211;28;20222;-86
2022/06/01 11:55:41;;;;;;;1.03;1.03;;;17.80;99.90;;;;;;4971407;28;20235;-85
2022/06/01 11:58:18;;;;;;;1.40;1.30;;;17.60;99.90;;;;;;5003890;28;20315;-88
2022/06/01 12:00:51;;;;;;;1.50;1.10;;;17.60;99.90;;;;;;5004417;28;20219;-88
2022/06/01 12:03:17;;;;;;;2.03;1.30;;;17.80;99.90;;;;;;5003507;28;20235;-87
2022/06/01 12:06:15;;;;;;;1.17;1.07;;;17.90;99.90;;;;;;5003254;28;20192;-90
2022/06/01 12:08:56;;;;;;;1.53;1.00;;;17.60;99.90;;;;;;5002888;28;20242;-90
2022/06/01 12:11:40;;;;;;;1.40;1.30;;;17.60;99.90;;;;;;5004277;28;20183;-90
2022/06/01 12:14:20;;;;;;;1.53;1.10;;;18.00;99.90;;;;;;5020585;28;20235;-89
2022/06/01 12:16:46;;;;;;;1.43;1.00;;;17.90;99.90;;;;;;5003847;28;20310;-90
2022/06/01 12:19:19;;;;;;;1.20;1.10;;;18.60;99.90;;;;;;4987710;28;20353;-88
2022/06/01 12:21:44;;;;;;;1.13;1.07;;;18.90;99.90;;;;;;5004819;28;20343;-90
2022/06/01 12:29:59;;;;;;;1.17;0.90;;;18.40;99.90;;;;;;5027298;28;20183;-90
2022/06/01 12:32:26;;;;;;;0.90;0.90;;;18.30;99.90;;;;;;5025131;28;20232;-88
2022/06/01 12:35:11;;;;;;;2.27;1.17;;;18.10;99.90;;;;;;5041793;28;20288;-90
2022/06/01 12:37:46;;;;;;;1.50;1.13;;;18.00;99.90;;;;;;5022880;28;20261;-87
2022/06/01 12:40:17;;;;;;;1.50;1.00;;;18.10;99.90;;;;;;5024211;28;20484;-87
2022/06/01 12:42:56;;;;;;;1.83;1.33;;;18.60;99.90;;;;;;5023097;28;20225;-87
2022/06/01 12:45:28;;;;;;;4.00;1.43;;;17.90;99.90;;;;;;5038738;28;20227;-89
2022/06/01 12:48:01;;;;;;;1.07;0.97;;;18.00;99.90;;;;;;5024015;28;20299;-88
2022/06/01 12:50:30;;;;;;;1.37;1.27;;;17.80;99.90;;;;;;5024677;28;20187;-89
2022/06/01 12:53:12;;;;;;;1.03;0.90;;;17.50;99.90;;;;;;5039475;28;20229;-90
2022/06/01 12:55:38;;;;;;;1.97;1.33;;;17.20;99.90;;;;;;5022723;28;20233;-88
2022/06/01 12:58:17;;;;;;;3.33;1.50;;;17.10;99.90;;;;;;5023239;28;20219;-86
2022/06/01 13:00:49;;;;;;;1.40;1.30;;;17.40;99.90;;;;;;5022499;28;20225;-88
2022/06/01 13:03:18;;;;;;;2.13;1.93;;;17.50;99.90;;;;;;5022831;28;20226;-90
2022/06/01 13:05:52;;;;;;;1.00;1.00;;;17.50;99.90;;;;;;5020345;28;20647;-88
2022/06/01 13:08:25;;;;;;;2.07;1.87;;;17.80;99.90;;;;;;5003578;28;20233;-89
2022/06/01 13:10:51;;;;;;;1.60;1.50;;;17.60;99.90;;;;;;5003243;28;20261;-89
2022/06/01 13:13:22;;;;;;;3.37;1.67;;;17.40;99.90;;;;;;5017253;28;20231;-89
2022/06/01 13:16:00;;;;;;;1.33;1.03;;;17.50;99.90;;;;;;5023156;28;20751;-89
2022/06/01 13:18:34;;;;;;;1.73;1.53;;;17.20;99.90;;;;;;5028639;28;20221;-93
2022/06/01 13:21:08;;;;;;;3.23;2.37;;;17.40;99.90;;;;;;5026176;28;20283;-91
2022/06/01 13:23:52;;;;;;;2.17;1.63;;;17.10;99.90;;;;;;5028142;28;20175;-88
2022/06/01 13:26:34;;;;;;;1.40;1.30;;;16.80;99.90;;;;;;5028834;28;20167;-90
2022/06/01 13:29:26;;;;;;;2.43;2.23;;;17.30;99.90;;;;;;5026025;28;20567;-91
2022/06/01 13:32:01;;;;;;;1.53;1.43;;;18.00;99.90;;;;;;5023818;28;20584;-91
2022/06/01 13:34:39;;;;;;;1.83;1.73;;;18.20;99.90;;;;;;5025273;28;20250;-88
2022/06/01 13:37:26;;;;;;;1.60;1.50;;;17.90;99.90;;;;;;5025885;28;20227;-93
2022/06/01 13:39:59;;;;;;;7.47;1.50;;;16.90;99.90;;;;;;5026681;28;21040;-92
2022/06/01 13:42:38;;;;;;;1.77;1.40;;;16.90;99.90;;;;;;5026784;28;20218;-89
2022/06/01 13:45:03;;;;;;;1.30;1.20;;;16.90;99.90;;;;;;5027036;28;20223;-91
2022/06/01 13:47:43;;;;;;;3.70;3.37;;;17.20;99.90;;;;;;5027456;28;20249;-91